createdAt,value
2019-02-19T00:00:55.952Z,93.30
2019-02-19T00:03:43.787Z,93.10
2019-02-19T00:06:13.838Z,93.50
2019-02-19T00:08:43.497Z,94.00
2019-02-19T00:11:14.670Z,94.30
2019-02-19T00:13:44.373Z,95.00
2019-02-19T00:16:14.699Z,95.30
2019-02-19T00:18:44.324Z,95.10
2019-02-19T00:21:13.853Z,95.70
2019-02-19T00:23:43.387Z,95.40
2019-02-19T00:26:17.707Z,95.50
2019-02-19T00:28:47.297Z,95.50
2019-02-19T00:31:17.384Z,95.80
2019-02-19T00:33:47.079Z,96.00
2019-02-19T00:36:16.676Z,96.00
2019-02-19T00:38:46.199Z,95.60
2019-02-19T00:41:16.646Z,95.90
2019-02-19T00:43:46.187Z,95.60
2019-02-19T00:46:15.788Z,95.90
2019-02-19T00:48:45.403Z,96.20
2019-02-19T00:51:14.943Z,96.40
2019-02-19T00:53:44.455Z,96.30
2019-02-19T00:56:14.267Z,96.40
2019-02-19T00:58:44.108Z,96.50
2019-02-19T01:01:14.439Z,96.20
2019-02-19T01:03:44.355Z,96.20
2019-02-19T01:06:14.267Z,96.50
2019-02-19T01:08:44.049Z,95.90
2019-02-19T01:11:14.131Z,96.00
2019-02-19T01:13:43.879Z,96.30
2019-02-19T01:16:14.100Z,96.00
2019-02-19T01:18:43.876Z,95.90
2019-02-19T01:21:15.527Z,96.00
2019-02-19T01:23:45.127Z,95.50
2019-02-19T01:26:14.675Z,95.80
2019-02-19T01:28:44.203Z,95.60
2019-02-19T01:31:13.729Z,96.00
2019-02-19T01:33:45.852Z,95.60
2019-02-19T01:36:15.383Z,96.10
2019-02-19T01:38:44.988Z,95.90
2019-02-19T01:41:14.569Z,96.60
2019-02-19T01:43:44.101Z,96.00
2019-02-19T01:46:13.630Z,96.20
2019-02-19T01:48:43.542Z,96.10
2019-02-19T01:51:13.434Z,95.80
2019-02-19T01:53:43.358Z,95.70
2019-02-19T01:56:13.524Z,95.60
2019-02-19T01:58:43.176Z,96.50
2019-02-19T02:01:13.396Z,96.10
2019-02-19T02:03:48.667Z,96.20
2019-02-19T02:06:18.194Z,95.70
2019-02-19T02:08:48.375Z,95.60
2019-02-19T02:11:18.173Z,95.90
2019-02-19T02:13:48.198Z,95.70
2019-02-19T02:16:18.056Z,95.80
2019-02-19T02:18:48.045Z,95.80
2019-02-19T02:21:17.873Z,95.60
2019-02-19T02:23:47.864Z,95.10
2019-02-19T02:26:18.098Z,95.20
2019-02-19T02:28:47.784Z,95.40
2019-02-19T02:31:17.760Z,95.50
2019-02-19T02:33:47.856Z,95.40
2019-02-19T02:36:17.684Z,95.40
2019-02-19T02:38:48.963Z,95.20
2019-02-19T02:41:18.602Z,95.20
2019-02-19T02:43:48.384Z,94.90
2019-02-19T02:46:17.989Z,94.90
2019-02-19T02:48:47.616Z,95.00
2019-02-19T02:51:17.552Z,94.70
2019-02-19T02:56:34.765Z,95.00
2019-02-19T02:59:04.427Z,95.20
2019-02-19T03:01:33.955Z,95.30
2019-02-19T03:04:04.299Z,94.80
2019-02-19T03:06:38.248Z,95.10
2019-02-19T03:09:07.915Z,94.80
2019-02-19T03:11:37.472Z,95.00
2019-02-19T03:14:07.267Z,95.00
2019-02-19T03:16:37.151Z,94.80
2019-02-19T03:19:09.091Z,94.80
2019-02-19T03:21:38.688Z,94.70
2019-02-19T03:24:12.159Z,95.00
2019-02-19T03:26:42.088Z,94.80
2019-02-19T03:29:11.880Z,94.80
2019-02-19T03:31:41.896Z,94.30
2019-02-19T03:34:11.520Z,94.90
2019-02-19T03:36:41.119Z,94.80
2019-02-19T03:39:10.716Z,95.00
2019-02-19T03:41:40.262Z,95.40
2019-02-19T03:44:10.144Z,94.90
2019-02-19T03:46:39.863Z,94.80
2019-02-19T03:49:09.481Z,94.60
2019-02-19T03:51:39.017Z,94.60
2019-02-19T03:54:08.676Z,94.90
2019-02-19T03:56:38.300Z,95.20
2019-02-19T03:59:07.960Z,95.00
2019-02-19T04:01:37.629Z,94.50
2019-02-19T04:04:09.341Z,94.50
2019-02-19T04:06:39.018Z,95.00
2019-02-19T04:09:08.789Z,94.60
2019-02-19T04:11:39.095Z,94.80
2019-02-19T04:14:08.616Z,94.80
2019-02-19T04:16:38.555Z,94.60
2019-02-19T04:19:08.104Z,95.00
2019-02-19T04:21:37.704Z,95.10
2019-02-19T04:24:07.373Z,95.10
2019-02-19T04:26:36.927Z,95.10
2019-02-19T04:29:06.718Z,95.20
2019-02-19T04:31:38.691Z,95.10
2019-02-19T04:34:08.636Z,95.10
2019-02-19T04:36:38.232Z,95.00
2019-02-19T04:39:07.752Z,95.00
2019-02-19T04:41:37.388Z,95.10
2019-02-19T04:44:07.055Z,95.00
2019-02-19T04:46:36.582Z,95.00
2019-02-19T04:49:06.459Z,95.00
2019-02-19T04:51:36.386Z,95.30
2019-02-19T04:54:06.347Z,95.30
2019-02-19T04:56:36.371Z,95.50
2019-02-19T04:59:06.342Z,95.40
2019-02-19T05:01:36.346Z,95.30
2019-02-19T05:05:04.160Z,95.30
2019-02-19T05:07:33.755Z,95.60
2019-02-19T05:10:03.985Z,95.80
2019-02-19T05:12:33.537Z,96.10
2019-02-19T05:15:03.137Z,96.10
2019-02-19T05:17:32.725Z,96.20
2019-02-19T05:20:02.966Z,96.30
2019-02-19T05:22:32.612Z,96.50
2019-02-19T05:25:02.137Z,96.30
2019-02-19T05:27:31.758Z,96.20
2019-02-19T05:30:01.547Z,96.20
2019-02-19T05:32:31.274Z,96.20
2019-02-19T05:35:01.547Z,96.40
2019-02-19T05:37:31.148Z,96.40
2019-02-19T05:40:01.145Z,96.40
2019-02-19T05:42:30.923Z,96.30
2019-02-19T05:45:01.196Z,96.20
2019-02-19T05:47:31.035Z,95.90
2019-02-19T05:50:00.951Z,95.80
2019-02-19T05:52:30.927Z,95.80
2019-02-19T05:55:00.910Z,96.20
2019-02-19T05:57:31.088Z,96.40
2019-02-19T06:00:00.644Z,96.30
2019-02-19T06:02:30.673Z,96.30
2019-02-19T06:05:00.787Z,96.30
2019-02-19T06:07:30.727Z,96.20
2019-02-19T06:10:00.641Z,96.10
2019-02-19T06:12:30.667Z,96.20
2019-02-19T06:15:00.496Z,96.20
2019-02-19T06:17:30.529Z,96.20
2019-02-19T06:20:00.677Z,95.90
2019-02-19T06:22:30.517Z,95.90
2019-02-19T06:25:00.418Z,95.80
2019-02-19T06:27:30.399Z,95.90
2019-02-19T06:30:00.283Z,95.80
2019-02-19T06:32:30.187Z,96.00
2019-02-19T06:35:00.285Z,96.00
2019-02-19T06:37:30.328Z,95.90
2019-02-19T06:40:00.314Z,95.90
2019-02-19T06:42:30.190Z,96.00
2019-02-19T06:45:00.151Z,96.10
2019-02-19T06:47:30.297Z,96.00
2019-02-19T06:50:00.331Z,96.20
2019-02-19T06:52:29.937Z,96.10
2019-02-19T06:55:00.000Z,96.00
2019-02-19T06:57:29.771Z,96.20
2019-02-19T06:59:59.875Z,96.00
2019-02-19T07:02:32.255Z,96.00
2019-02-19T07:05:02.671Z,96.00
2019-02-19T07:07:34.032Z,96.00
2019-02-19T07:10:04.314Z,96.10
2019-02-19T07:12:33.997Z,96.00
2019-02-19T07:15:07.804Z,96.10
2019-02-19T07:17:37.327Z,96.00
2019-02-19T07:20:09.115Z,96.00
2019-02-19T07:22:38.785Z,96.10
2019-02-19T07:25:10.753Z,96.20
2019-02-19T07:27:40.372Z,96.10
2019-02-19T07:30:11.638Z,96.00
2019-02-19T07:32:41.238Z,95.80
2019-02-19T07:35:11.361Z,95.90
2019-02-19T07:37:40.896Z,96.00
2019-02-19T07:40:10.631Z,95.90
2019-02-19T07:42:40.171Z,96.00
2019-02-19T07:45:11.865Z,95.80
2019-02-19T07:47:41.796Z,95.60
2019-02-19T07:50:12.293Z,95.40
2019-02-19T07:52:41.919Z,95.00
2019-02-19T07:55:13.588Z,94.60
2019-02-19T07:57:43.208Z,94.60
2019-02-19T08:00:13.686Z,94.20
2019-02-19T08:02:43.908Z,93.80
2019-02-19T08:05:13.831Z,93.60
2019-02-19T08:07:43.979Z,93.40
2019-02-19T08:10:13.791Z,93.50
2019-02-19T08:12:43.630Z,93.50
2019-02-19T08:15:13.532Z,92.90
2019-02-19T08:17:43.641Z,92.80
2019-02-19T08:20:16.196Z,92.40
2019-02-19T08:22:44.860Z,92.30
2019-02-19T08:25:14.652Z,92.50
2019-02-19T08:27:44.457Z,92.40
2019-02-19T08:30:14.136Z,92.70
2019-02-19T08:32:46.847Z,92.50
2019-02-19T08:35:16.532Z,92.80
2019-02-19T08:37:46.052Z,92.10
2019-02-19T08:40:15.864Z,91.80
2019-02-19T08:42:45.791Z,91.80
2019-02-19T08:45:15.564Z,91.50
2019-02-19T08:47:45.907Z,91.70
2019-02-19T08:50:15.600Z,91.50
2019-02-19T08:52:45.143Z,91.20
2019-02-19T08:55:14.806Z,91.10
2019-02-19T08:57:44.432Z,90.40
2019-02-19T09:00:14.023Z,90.40
2019-02-19T09:02:43.967Z,90.20
2019-02-19T09:05:14.203Z,90.30
2019-02-19T09:07:43.748Z,90.00
2019-02-19T09:10:13.897Z,88.00
2019-02-19T09:12:43.751Z,88.20
2019-02-19T09:15:13.773Z,87.90
2019-02-19T09:17:51.595Z,87.00
2019-02-19T09:20:15.616Z,85.60
2019-02-19T09:22:45.218Z,85.50
2019-02-19T09:25:14.888Z,83.10
2019-02-19T09:27:44.534Z,82.80
2019-02-19T09:30:14.222Z,80.00
2019-02-19T09:32:43.883Z,77.30
2019-02-19T09:35:13.611Z,74.50
2019-02-19T09:37:43.392Z,73.00
2019-02-19T09:40:13.631Z,70.50
2019-02-19T09:42:43.440Z,70.90
2019-02-19T09:45:13.291Z,69.90
2019-02-19T09:47:43.440Z,71.60
2019-02-19T09:50:13.314Z,70.10
2019-02-19T09:52:43.112Z,69.30
2019-02-19T09:55:13.017Z,68.50
2019-02-19T09:57:43.060Z,69.60
2019-02-19T10:00:14.395Z,70.00
2019-02-19T10:02:44.135Z,68.70
2019-02-19T10:05:13.770Z,65.10
2019-02-19T10:07:43.471Z,64.50
2019-02-19T10:10:15.911Z,63.60
2019-02-19T10:12:45.531Z,61.00
2019-02-19T10:15:15.382Z,61.30
2019-02-19T10:17:45.483Z,64.00
2019-02-19T10:20:15.463Z,64.50
2019-02-19T10:22:45.010Z,59.50
2019-02-19T10:25:16.548Z,58.10
2019-02-19T10:27:46.101Z,59.20
2019-02-19T10:30:17.705Z,62.50
2019-02-19T10:32:47.445Z,63.80
2019-02-19T10:35:16.997Z,65.80
2019-02-19T10:37:47.167Z,64.30
2019-02-19T10:40:18.799Z,64.10
2019-02-19T10:42:48.352Z,62.30
2019-02-19T10:45:19.933Z,61.90
2019-02-19T10:47:49.607Z,63.80
2019-02-19T10:50:19.759Z,63.90
2019-02-19T10:52:49.365Z,66.60
2019-02-19T10:55:18.891Z,65.00
2019-02-19T10:57:48.479Z,65.20
2019-02-19T11:00:20.583Z,64.90
2019-02-19T11:02:50.188Z,63.10
2019-02-19T11:05:19.976Z,64.00
2019-02-19T11:07:49.510Z,66.00
2019-02-19T11:10:19.124Z,66.50
2019-02-19T11:12:48.748Z,67.30
2019-02-19T11:17:59.795Z,70.10
2019-02-19T11:20:29.335Z,72.60
2019-02-19T11:22:59.917Z,74.60
2019-02-19T11:25:29.561Z,75.20
2019-02-19T11:27:59.147Z,75.90
2019-02-19T11:30:28.879Z,74.50
2019-02-19T11:33:00.014Z,75.50
2019-02-19T11:35:29.732Z,76.10
2019-02-19T11:37:59.299Z,76.40
2019-02-19T11:40:28.864Z,76.40
2019-02-19T11:42:59.657Z,77.00
2019-02-19T11:45:29.298Z,77.70
2019-02-19T11:47:58.935Z,78.20
2019-02-19T11:50:28.541Z,79.10
2019-02-19T11:52:58.159Z,80.00
2019-02-19T11:55:27.798Z,80.20
2019-02-19T11:57:57.400Z,80.40
2019-02-19T12:00:34.941Z,81.40
2019-02-19T12:03:04.623Z,82.40
2019-02-19T12:05:34.223Z,82.90
2019-02-19T12:08:03.928Z,82.90
2019-02-19T12:10:33.533Z,82.40
2019-02-19T12:13:03.212Z,82.00
2019-02-19T12:15:35.460Z,82.50
2019-02-19T12:18:04.599Z,82.50
2019-02-19T12:20:34.126Z,83.40
2019-02-19T12:23:04.425Z,83.60
2019-02-19T12:25:35.192Z,83.60
2019-02-19T12:28:04.744Z,83.60
2019-02-19T12:30:34.343Z,84.50
2019-02-19T12:33:04.044Z,83.80
2019-02-19T12:35:33.591Z,84.30
2019-02-19T12:38:03.129Z,84.00
2019-02-19T12:40:32.799Z,85.20
2019-02-19T12:43:03.139Z,85.10
2019-02-19T12:45:32.733Z,86.40
2019-02-19T12:48:02.577Z,85.40
2019-02-19T12:50:32.723Z,85.70
2019-02-19T12:53:02.323Z,86.10
2019-02-19T12:55:31.923Z,86.20
2019-02-19T12:58:01.564Z,85.40
2019-02-19T13:00:31.237Z,85.70
2019-02-19T13:03:00.992Z,85.40
2019-02-19T13:05:30.839Z,85.60
2019-02-19T13:08:00.667Z,86.10
2019-02-19T13:10:30.654Z,86.70
2019-02-19T13:13:00.781Z,86.50
2019-02-19T13:15:30.359Z,85.60
2019-02-19T13:18:00.339Z,84.50
2019-02-19T13:20:30.588Z,85.60
2019-02-19T13:23:00.126Z,85.80
2019-02-19T13:25:30.560Z,84.80
2019-02-19T13:28:00.260Z,84.80
2019-02-19T13:30:30.131Z,84.00
2019-02-19T13:33:00.147Z,84.30
2019-02-19T13:35:30.106Z,83.00
2019-02-19T13:37:59.959Z,83.40
2019-02-19T13:40:30.260Z,83.20
2019-02-19T13:43:00.204Z,83.30
2019-02-19T13:45:29.796Z,83.90
2019-02-19T13:48:05.878Z,84.00
2019-02-19T13:50:32.345Z,84.90
2019-02-19T13:53:10.176Z,84.80
2019-02-19T13:55:41.637Z,85.50
2019-02-19T13:58:11.168Z,85.40
2019-02-19T14:00:44.845Z,86.20
2019-02-19T14:03:33.827Z,85.60
2019-02-19T14:06:04.894Z,86.30
2019-02-19T14:08:34.488Z,86.10
2019-02-19T14:11:05.671Z,85.70
2019-02-19T14:13:35.202Z,85.60
2019-02-19T14:16:08.950Z,84.30
2019-02-19T14:18:46.757Z,84.60
2019-02-19T14:21:24.659Z,84.80
2019-02-19T14:24:11.791Z,84.50
2019-02-19T14:26:52.824Z,85.00
2019-02-19T14:29:25.087Z,84.90
2019-02-19T14:32:00.552Z,85.30
2019-02-19T14:34:39.179Z,84.90
2019-02-19T14:37:12.802Z,85.30
2019-02-19T14:39:46.544Z,84.10
2019-02-19T14:42:27.330Z,83.50
2019-02-19T14:45:14.769Z,83.80
2019-02-19T14:48:04.207Z,83.00
2019-02-19T14:50:42.043Z,83.00
2019-02-19T14:53:22.867Z,82.20
2019-02-19T14:56:10.099Z,82.10
2019-02-19T14:58:50.259Z,82.00
2019-02-19T15:01:21.655Z,80.90
2019-02-19T15:04:01.779Z,80.30
2019-02-19T15:06:35.973Z,80.60
2019-02-19T15:09:09.533Z,80.70
2019-02-19T15:11:50.831Z,80.30
2019-02-19T15:14:38.179Z,79.80
2019-02-19T15:17:25.347Z,79.20
2019-02-19T15:19:57.260Z,79.50
2019-02-19T15:22:31.343Z,78.90
2019-02-19T15:25:02.973Z,78.50
2019-02-19T15:27:46.705Z,78.40
2019-02-19T15:33:41.130Z,77.60
2019-02-19T15:36:28.871Z,76.30
2019-02-19T15:39:03.531Z,76.90
2019-02-19T15:41:50.757Z,77.60
2019-02-19T15:44:21.972Z,77.00
2019-02-19T15:47:02.208Z,76.40
2019-02-19T15:49:47.614Z,78.10
2019-02-19T15:52:32.115Z,77.30
2019-02-19T15:55:16.516Z,77.80
2019-02-19T15:57:51.970Z,78.40
2019-02-19T16:00:38.471Z,78.00
2019-02-19T16:03:09.643Z,77.70
2019-02-19T16:05:40.815Z,77.40
2019-02-19T16:08:28.483Z,78.00
2019-02-19T16:10:59.715Z,78.70
2019-02-19T16:13:43.306Z,78.70
2019-02-19T16:16:20.270Z,79.00
2019-02-19T16:18:53.106Z,79.70
2019-02-19T16:21:30.301Z,80.00
2019-02-19T16:24:07.962Z,80.30
2019-02-19T16:26:48.089Z,80.60
2019-02-19T16:29:28.338Z,80.10
2019-02-19T16:32:10.033Z,80.30
2019-02-19T16:34:42.836Z,80.30
2019-02-19T16:37:14.104Z,80.70
2019-02-19T16:40:00.508Z,80.00
2019-02-19T16:42:37.809Z,80.40
2019-02-19T16:45:10.638Z,80.10
2019-02-19T16:47:41.813Z,79.20
2019-02-19T16:50:22.004Z,79.10
2019-02-19T16:52:59.887Z,78.90
2019-02-19T16:55:40.615Z,79.50
2019-02-19T16:58:26.497Z,79.20
2019-02-19T17:01:00.496Z,79.60
2019-02-19T17:03:31.727Z,79.80
2019-02-19T17:06:05.719Z,80.60
2019-02-19T17:08:53.108Z,81.50
2019-02-19T17:11:27.409Z,81.60
2019-02-19T17:14:15.918Z,82.20
2019-02-19T17:16:59.117Z,82.50
2019-02-19T17:19:45.144Z,82.80
2019-02-19T17:22:16.368Z,83.20
2019-02-19T17:24:53.738Z,84.20
2019-02-19T17:27:41.281Z,85.00
2019-02-19T17:30:28.627Z,86.10
2019-02-19T17:33:00.075Z,86.80
2019-02-19T17:35:39.720Z,88.00
2019-02-19T17:38:14.567Z,89.20
2019-02-19T17:40:44.347Z,89.70
2019-02-19T17:43:16.294Z,89.90
2019-02-19T17:45:56.978Z,90.10
2019-02-19T17:48:31.476Z,90.30
2019-02-19T17:51:11.256Z,90.70
2019-02-19T17:53:58.837Z,90.70
2019-02-19T17:56:33.017Z,90.80
2019-02-19T17:59:05.114Z,90.80
2019-02-19T18:01:39.276Z,91.10
2019-02-19T18:04:13.208Z,91.00
2019-02-19T18:06:53.400Z,91.10
2019-02-19T18:09:24.669Z,90.80
2019-02-19T18:12:12.014Z,90.80
2019-02-19T18:14:43.948Z,90.90
2019-02-19T18:17:30.162Z,90.90
2019-02-19T18:20:00.288Z,90.90
2019-02-19T18:22:29.949Z,91.00
2019-02-19T18:25:00.277Z,90.80
2019-02-19T18:27:29.897Z,90.80
2019-02-19T18:29:59.594Z,91.00
2019-02-19T18:32:29.202Z,90.90
2019-02-19T18:34:58.840Z,90.80
2019-02-19T18:37:28.365Z,90.80
2019-02-19T18:39:57.895Z,90.80
2019-02-19T18:42:27.729Z,90.90
2019-02-19T18:44:57.626Z,91.00
2019-02-19T18:47:27.800Z,90.80
2019-02-19T18:49:58.607Z,90.90
2019-02-19T18:52:28.266Z,90.90
2019-02-19T18:54:57.818Z,90.90
2019-02-19T18:57:27.475Z,91.00
2019-02-19T18:59:57.386Z,90.80
2019-02-19T19:02:27.455Z,90.90
2019-02-19T19:04:58.038Z,90.80
2019-02-19T19:07:28.029Z,90.80
2019-02-19T19:09:57.867Z,90.90
2019-02-19T19:12:27.886Z,90.70
2019-02-19T19:14:57.492Z,90.60
2019-02-19T19:17:27.499Z,90.40
2019-02-19T19:19:57.133Z,90.20
2019-02-19T19:22:26.731Z,90.20
2019-02-19T19:24:56.495Z,90.40
2019-02-19T19:27:26.894Z,90.40
2019-02-19T19:29:56.556Z,90.30
2019-02-19T19:32:26.162Z,90.40
2019-02-19T19:34:56.808Z,90.40
2019-02-19T19:37:26.413Z,90.40
2019-02-19T19:39:55.952Z,90.30
2019-02-19T19:42:26.043Z,90.30
2019-02-19T19:44:55.872Z,90.30
2019-02-19T19:47:25.666Z,90.40
2019-02-19T19:49:55.459Z,90.20
2019-02-19T19:52:25.651Z,90.10
2019-02-19T19:54:55.767Z,90.10
2019-02-19T19:57:25.544Z,90.00
2019-02-19T19:59:55.314Z,90.00
2019-02-19T20:02:25.417Z,90.00
2019-02-19T20:04:57.509Z,89.90
2019-02-19T20:07:27.172Z,90.00
2019-02-19T20:09:56.776Z,89.70
2019-02-19T20:12:27.240Z,89.90
2019-02-19T20:14:56.768Z,89.90
2019-02-19T20:17:26.295Z,89.60
2019-02-19T20:19:56.007Z,89.60
2019-02-19T20:22:25.694Z,89.90
2019-02-19T20:24:55.308Z,89.60
2019-02-19T20:27:25.136Z,90.00
2019-02-19T20:29:54.995Z,90.00
2019-02-19T20:32:25.129Z,89.90
2019-02-19T20:34:55.060Z,90.00
2019-02-19T20:37:25.157Z,89.80
2019-02-19T20:39:54.967Z,89.90
2019-02-19T20:42:24.882Z,89.70
2019-02-19T20:44:54.811Z,89.50
2019-02-19T20:47:24.727Z,89.30
2019-02-19T20:49:54.675Z,88.90
2019-02-19T20:52:24.686Z,89.50
2019-02-19T20:54:55.409Z,89.20
2019-02-19T20:57:25.196Z,89.00
2019-02-19T20:59:54.867Z,89.00
2019-02-19T21:02:24.908Z,88.90
2019-02-19T21:04:54.629Z,89.10
2019-02-19T21:07:24.491Z,89.20
2019-02-19T21:09:54.434Z,89.40
2019-02-19T21:12:24.353Z,89.60
2019-02-19T21:14:54.228Z,89.60
2019-02-19T21:17:24.458Z,90.00
2019-02-19T21:19:54.428Z,89.40
2019-02-19T21:22:24.282Z,89.50
2019-02-19T21:24:54.223Z,89.80
2019-02-19T21:27:24.447Z,89.80
2019-02-19T21:29:54.360Z,89.70
2019-02-19T21:32:24.248Z,89.90
2019-02-19T21:34:54.895Z,89.80
2019-02-19T21:37:24.423Z,89.60
2019-02-19T21:39:54.116Z,89.80
2019-02-19T21:42:24.314Z,89.60
2019-02-19T21:44:54.169Z,89.90
2019-02-19T21:47:24.060Z,89.90
2019-02-19T21:49:54.416Z,89.50
2019-02-19T21:52:23.952Z,89.60
2019-02-19T21:54:53.881Z,90.10
2019-02-19T21:57:23.790Z,89.90
2019-02-19T21:59:54.022Z,90.20
2019-02-19T22:02:23.707Z,90.20
2019-02-19T22:04:53.783Z,90.20
2019-02-19T22:07:23.791Z,90.10
2019-02-19T22:09:53.796Z,90.30
2019-02-19T22:12:23.634Z,90.40
2019-02-19T22:14:53.231Z,90.70
2019-02-19T22:17:26.109Z,90.90
2019-02-19T22:20:02.886Z,91.30
2019-02-19T22:22:27.435Z,91.40
2019-02-19T22:24:57.008Z,91.70
2019-02-19T22:27:26.573Z,92.00
2019-02-19T22:29:56.820Z,92.50
2019-02-19T22:32:26.416Z,92.60
2019-02-19T22:34:56.040Z,92.70
2019-02-19T22:37:26.460Z,93.00
2019-02-19T22:39:56.804Z,93.00
2019-02-19T22:42:26.484Z,93.30
2019-02-19T22:44:56.227Z,93.80
2019-02-19T22:47:26.420Z,93.50
2019-02-19T22:49:56.035Z,93.90
2019-02-19T22:52:27.127Z,94.40
2019-02-19T22:54:59.227Z,94.20
2019-02-19T22:57:30.701Z,94.30
2019-02-19T23:00:00.539Z,94.70
2019-02-19T23:02:30.269Z,94.90
2019-02-19T23:05:00.781Z,94.80
2019-02-19T23:07:30.524Z,95.00
2019-02-19T23:10:00.210Z,94.70
2019-02-19T23:12:30.697Z,94.90
2019-02-19T23:15:00.309Z,95.10
2019-02-19T23:17:29.983Z,95.00
2019-02-19T23:20:00.842Z,95.20
2019-02-19T23:22:30.453Z,95.10
2019-02-19T23:25:00.295Z,95.20
2019-02-19T23:27:31.076Z,95.30
2019-02-19T23:30:01.357Z,94.90
2019-02-19T23:32:30.975Z,95.20
2019-02-19T23:38:21.135Z,94.70
2019-02-19T23:40:50.705Z,94.70
2019-02-19T23:43:25.781Z,94.50
2019-02-19T23:45:58.459Z,94.70
2019-02-19T23:48:28.270Z,94.40
2019-02-19T23:51:03.800Z,94.30
2019-02-19T23:53:33.876Z,94.40
2019-02-19T23:56:03.594Z,94.60
2019-02-19T23:58:33.172Z,94.40
